sensor_id;sensor_type;location;lat;lon;timestamp;P1;durP1;ratioP1;P2;durP2;ratioP2
14472;SDS011;7322;50.872;4.386;2023-03-08T00:01:17;1.60;;;0.90;;
14472;SDS011;7322;50.872;4.386;2023-03-08T00:03:49;1.43;;;1.00;;
14472;SDS011;7322;50.872;4.386;2023-03-08T00:06:18;1.00;;;0.90;;
14472;SDS011;7322;50.872;4.386;2023-03-08T00:08:45;1.00;;;0.90;;
14472;SDS011;7322;50.872;4.386;2023-03-08T00:11:15;1.20;;;0.97;;
14472;SDS011;7322;50.872;4.386;2023-03-08T00:13:42;1.20;;;1.10;;
14472;SDS011;7322;50.872;4.386;2023-03-08T00:16:10;0.87;;;0.87;;
14472;SDS011;7322;50.872;4.386;2023-03-08T00:18:39;1.30;;;1.07;;
14472;SDS011;7322;50.872;4.386;2023-03-08T00:21:09;1.30;;;1.00;;
14472;SDS011;7322;50.872;4.386;2023-03-08T00:23:37;1.53;;;1.10;;
14472;SDS011;7322;50.872;4.386;2023-03-08T00:26:06;1.10;;;1.00;;
14472;SDS011;7322;50.872;4.386;2023-03-08T00:28:34;0.90;;;0.90;;
14472;SDS011;7322;50.872;4.386;2023-03-08T00:31:02;1.47;;;0.90;;
14472;SDS011;7322;50.872;4.386;2023-03-08T00:33:32;1.17;;;1.07;;
14472;SDS011;7322;50.872;4.386;2023-03-08T00:36:02;1.63;;;1.07;;
14472;SDS011;7322;50.872;4.386;2023-03-08T00:38:33;1.10;;;1.00;;
14472;SDS011;7322;50.872;4.386;2023-03-08T00:41:02;1.63;;;1.20;;
14472;SDS011;7322;50.872;4.386;2023-03-08T00:43:30;2.20;;;1.00;;
14472;SDS011;7322;50.872;4.386;2023-03-08T00:45:58;1.40;;;1.00;;
14472;SDS011;7322;50.872;4.386;2023-03-08T00:48:25;0.90;;;0.90;;
14472;SDS011;7322;50.872;4.386;2023-03-08T00:50:54;1.07;;;0.97;;
14472;SDS011;7322;50.872;4.386;2023-03-08T00:53:21;0.93;;;0.90;;
14472;SDS011;7322;50.872;4.386;2023-03-08T00:55:51;0.80;;;0.80;;
14472;SDS011;7322;50.872;4.386;2023-03-08T00:58:19;1.20;;;1.10;;
14472;SDS011;7322;50.872;4.386;2023-03-08T01:00:46;1.10;;;1.00;;
14472;SDS011;7322;50.872;4.386;2023-03-08T01:03:14;1.33;;;1.10;;
14472;SDS011;7322;50.872;4.386;2023-03-08T01:05:43;1.20;;;1.00;;
14472;SDS011;7322;50.872;4.386;2023-03-08T01:08:12;1.10;;;0.90;;
14472;SDS011;7322;50.872;4.386;2023-03-08T01:10:39;1.10;;;1.00;;
14472;SDS011;7322;50.872;4.386;2023-03-08T01:13:14;1.10;;;1.00;;
14472;SDS011;7322;50.872;4.386;2023-03-08T01:15:41;1.37;;;1.00;;
14472;SDS011;7322;50.872;4.386;2023-03-08T01:18:09;0.80;;;0.80;;
14472;SDS011;7322;50.872;4.386;2023-03-08T01:20:36;1.20;;;1.00;;
14472;SDS011;7322;50.872;4.386;2023-03-08T01:23:07;0.93;;;0.93;;
14472;SDS011;7322;50.872;4.386;2023-03-08T01:25:36;1.20;;;0.90;;
14472;SDS011;7322;50.872;4.386;2023-03-08T01:28:03;0.97;;;0.90;;
14472;SDS011;7322;50.872;4.386;2023-03-08T01:30:32;1.47;;;1.10;;
14472;SDS011;7322;50.872;4.386;2023-03-08T01:33:00;1.10;;;0.90;;
14472;SDS011;7322;50.872;4.386;2023-03-08T01:35:27;2.03;;;1.00;;
14472;SDS011;7322;50.872;4.386;2023-03-08T01:37:54;0.90;;;0.90;;
14472;SDS011;7322;50.872;4.386;2023-03-08T01:40:21;1.10;;;1.00;;
14472;SDS011;7322;50.872;4.386;2023-03-08T01:42:50;1.57;;;0.93;;
14472;SDS011;7322;50.872;4.386;2023-03-08T01:48:24;1.10;;;1.00;;
14472;SDS011;7322;50.872;4.386;2023-03-08T01:50:59;0.70;;;0.70;;
14472;SDS011;7322;50.872;4.386;2023-03-08T01:53:29;1.10;;;1.00;;
14472;SDS011;7322;50.872;4.386;2023-03-08T01:55:56;1.10;;;1.00;;
14472;SDS011;7322;50.872;4.386;2023-03-08T01:58:25;1.10;;;0.80;;
14472;SDS011;7322;50.872;4.386;2023-03-08T02:00:53;1.00;;;0.83;;
14472;SDS011;7322;50.872;4.386;2023-03-08T02:03:23;1.10;;;1.00;;
14472;SDS011;7322;50.872;4.386;2023-03-08T02:05:56;1.23;;;1.00;;
14472;SDS011;7322;50.872;4.386;2023-03-08T02:08:23;0.90;;;0.90;;
14472;SDS011;7322;50.872;4.386;2023-03-08T02:10:51;0.87;;;0.87;;
14472;SDS011;7322;50.872;4.386;2023-03-08T02:13:18;0.77;;;0.77;;
14472;SDS011;7322;50.872;4.386;2023-03-08T02:15:46;0.90;;;0.80;;
14472;SDS011;7322;50.872;4.386;2023-03-08T02:18:17;0.80;;;0.80;;
14472;SDS011;7322;50.872;4.386;2023-03-08T02:20:47;0.90;;;0.90;;
14472;SDS011;7322;50.872;4.386;2023-03-08T02:23:16;1.13;;;1.00;;
14472;SDS011;7322;50.872;4.386;2023-03-08T02:25:50;1.10;;;1.00;;
14472;SDS011;7322;50.872;4.386;2023-03-08T02:28:19;1.23;;;1.03;;
14472;SDS011;7322;50.872;4.386;2023-03-08T02:30:48;1.10;;;0.93;;
14472;SDS011;7322;50.872;4.386;2023-03-08T02:33:16;1.20;;;0.93;;
14472;SDS011;7322;50.872;4.386;2023-03-08T02:35:43;0.90;;;0.90;;
14472;SDS011;7322;50.872;4.386;2023-03-08T02:38:12;1.07;;;0.90;;
14472;SDS011;7322;50.872;4.386;2023-03-08T02:40:43;1.87;;;1.00;;
14472;SDS011;7322;50.872;4.386;2023-03-08T02:43:12;0.97;;;0.90;;
14472;SDS011;7322;50.872;4.386;2023-03-08T02:45:39;1.17;;;0.90;;
14472;SDS011;7322;50.872;4.386;2023-03-08T02:48:06;0.80;;;0.80;;
14472;SDS011;7322;50.872;4.386;2023-03-08T02:50:34;0.77;;;0.77;;
14472;SDS011;7322;50.872;4.386;2023-03-08T02:53:02;1.00;;;1.00;;
14472;SDS011;7322;50.872;4.386;2023-03-08T02:55:29;0.90;;;0.90;;
14472;SDS011;7322;50.872;4.386;2023-03-08T02:58:01;1.30;;;0.90;;
14472;SDS011;7322;50.872;4.386;2023-03-08T03:00:29;0.90;;;0.90;;
14472;SDS011;7322;50.872;4.386;2023-03-08T03:02:56;1.10;;;1.00;;
14472;SDS011;7322;50.872;4.386;2023-03-08T03:05:24;0.83;;;0.80;;
14472;SDS011;7322;50.872;4.386;2023-03-08T03:07:51;1.03;;;0.93;;
14472;SDS011;7322;50.872;4.386;2023-03-08T03:10:19;1.20;;;1.00;;
14472;SDS011;7322;50.872;4.386;2023-03-08T03:12:47;0.90;;;0.90;;
14472;SDS011;7322;50.872;4.386;2023-03-08T03:15:18;0.97;;;0.87;;
14472;SDS011;7322;50.872;4.386;2023-03-08T03:17:47;1.50;;;1.03;;
14472;SDS011;7322;50.872;4.386;2023-03-08T03:20:14;0.80;;;0.80;;
14472;SDS011;7322;50.872;4.386;2023-03-08T03:22:41;1.13;;;0.90;;
14472;SDS011;7322;50.872;4.386;2023-03-08T03:25:09;1.27;;;1.00;;
14472;SDS011;7322;50.872;4.386;2023-03-08T03:27:36;0.90;;;0.90;;
14472;SDS011;7322;50.872;4.386;2023-03-08T03:30:04;1.43;;;0.70;;
14472;SDS011;7322;50.872;4.386;2023-03-08T03:32:34;1.07;;;0.90;;
14472;SDS011;7322;50.872;4.386;2023-03-08T03:35:05;0.90;;;0.90;;
14472;SDS011;7322;50.872;4.386;2023-03-08T03:37:34;0.90;;;0.90;;
14472;SDS011;7322;50.872;4.386;2023-03-08T03:40:02;0.70;;;0.70;;
14472;SDS011;7322;50.872;4.386;2023-03-08T03:42:29;0.80;;;0.80;;
14472;SDS011;7322;50.872;4.386;2023-03-08T03:44:56;0.80;;;0.80;;
14472;SDS011;7322;50.872;4.386;2023-03-08T03:47:25;0.70;;;0.70;;
14472;SDS011;7322;50.872;4.386;2023-03-08T03:49:59;0.80;;;0.80;;
14472;SDS011;7322;50.872;4.386;2023-03-08T03:52:27;1.00;;;0.73;;
14472;SDS011;7322;50.872;4.386;2023-03-08T03:54:54;0.90;;;0.90;;
14472;SDS011;7322;50.872;4.386;2023-03-08T03:57:21;1.00;;;0.90;;
14472;SDS011;7322;50.872;4.386;2023-03-08T03:59:48;1.70;;;0.90;;
14472;SDS011;7322;50.872;4.386;2023-03-08T04:02:16;0.90;;;0.90;;
14472;SDS011;7322;50.872;4.386;2023-03-08T04:04:47;1.63;;;0.90;;
14472;SDS011;7322;50.872;4.386;2023-03-08T04:07:16;1.27;;;1.03;;
14472;SDS011;7322;50.872;4.386;2023-03-08T04:09:44;0.80;;;0.80;;
14472;SDS011;7322;50.872;4.386;2023-03-08T04:12:12;0.70;;;0.70;;
14472;SDS011;7322;50.872;4.386;2023-03-08T04:14:39;1.30;;;0.83;;
14472;SDS011;7322;50.872;4.386;2023-03-08T04:17:07;0.70;;;0.70;;
14472;SDS011;7322;50.872;4.386;2023-03-08T04:19:35;0.80;;;0.80;;
14472;SDS011;7322;50.872;4.386;2023-03-08T04:22:03;0.90;;;0.90;;
14472;SDS011;7322;50.872;4.386;2023-03-08T04:24:32;1.00;;;0.90;;
14472;SDS011;7322;50.872;4.386;2023-03-08T04:27:00;0.70;;;0.70;;
14472;SDS011;7322;50.872;4.386;2023-03-08T04:29:27;1.03;;;0.80;;
14472;SDS011;7322;50.872;4.386;2023-03-08T04:31:55;0.80;;;0.80;;
14472;SDS011;7322;50.872;4.386;2023-03-08T04:34:24;0.70;;;0.70;;
14472;SDS011;7322;50.872;4.386;2023-03-08T04:36:53;1.07;;;0.97;;
14472;SDS011;7322;50.872;4.386;2023-03-08T04:39:20;0.80;;;0.80;;
14472;SDS011;7322;50.872;4.386;2023-03-08T04:41:51;0.70;;;0.70;;
14472;SDS011;7322;50.872;4.386;2023-03-08T04:44:20;0.70;;;0.70;;
14472;SDS011;7322;50.872;4.386;2023-03-08T04:46:47;0.97;;;0.90;;
14472;SDS011;7322;50.872;4.386;2023-03-08T04:49:14;0.90;;;0.80;;
14472;SDS011;7322;50.872;4.386;2023-03-08T04:51:42;0.73;;;0.73;;
14472;SDS011;7322;50.872;4.386;2023-03-08T04:54:11;0.70;;;0.70;;
14472;SDS011;7322;50.872;4.386;2023-03-08T04:56:39;0.53;;;0.53;;
14472;SDS011;7322;50.872;4.386;2023-03-08T04:59:07;0.90;;;0.90;;
14472;SDS011;7322;50.872;4.386;2023-03-08T05:01:35;0.60;;;0.60;;
14472;SDS011;7322;50.872;4.386;2023-03-08T05:04:04;0.80;;;0.80;;
14472;SDS011;7322;50.872;4.386;2023-03-08T05:06:31;0.80;;;0.80;;
14472;SDS011;7322;50.872;4.386;2023-03-08T05:08:59;0.80;;;0.80;;
14472;SDS011;7322;50.872;4.386;2023-03-08T05:11:27;0.90;;;0.70;;
14472;SDS011;7322;50.872;4.386;2023-03-08T05:13:57;0.73;;;0.73;;
14472;SDS011;7322;50.872;4.386;2023-03-08T05:16:30;0.60;;;0.60;;
14472;SDS011;7322;50.872;4.386;2023-03-08T05:18:59;0.73;;;0.73;;
14472;SDS011;7322;50.872;4.386;2023-03-08T05:21:27;0.73;;;0.73;;
14472;SDS011;7322;50.872;4.386;2023-03-08T05:23:54;0.63;;;0.63;;
14472;SDS011;7322;50.872;4.386;2023-03-08T05:26:26;0.70;;;0.70;;
14472;SDS011;7322;50.872;4.386;2023-03-08T05:28:56;0.90;;;0.90;;
14472;SDS011;7322;50.872;4.386;2023-03-08T05:31:29;1.13;;;0.70;;
14472;SDS011;7322;50.872;4.386;2023-03-08T05:33:57;0.83;;;0.67;;
14472;SDS011;7322;50.872;4.386;2023-03-08T05:36:25;0.73;;;0.73;;
14472;SDS011;7322;50.872;4.386;2023-03-08T05:38:53;0.70;;;0.70;;
14472;SDS011;7322;50.872;4.386;2023-03-08T05:41:21;0.63;;;0.63;;
14472;SDS011;7322;50.872;4.386;2023-03-08T05:43:50;0.80;;;0.80;;
14472;SDS011;7322;50.872;4.386;2023-03-08T05:46:17;0.60;;;0.60;;
14472;SDS011;7322;50.872;4.386;2023-03-08T05:48:47;1.07;;;0.90;;
14472;SDS011;7322;50.872;4.386;2023-03-08T05:51:15;0.60;;;0.60;;
14472;SDS011;7322;50.872;4.386;2023-03-08T05:53:45;0.87;;;0.80;;
14472;SDS011;7322;50.872;4.386;2023-03-08T05:56:14;0.57;;;0.57;;
14472;SDS011;7322;50.872;4.386;2023-03-08T05:58:44;0.87;;;0.60;;
14472;SDS011;7322;50.872;4.386;2023-03-08T06:01:12;0.60;;;0.60;;
14472;SDS011;7322;50.872;4.386;2023-03-08T06:03:45;0.70;;;0.70;;
14472;SDS011;7322;50.872;4.386;2023-03-08T06:06:16;0.70;;;0.70;;
14472;SDS011;7322;50.872;4.386;2023-03-08T06:08:45;0.80;;;0.80;;
14472;SDS011;7322;50.872;4.386;2023-03-08T06:11:14;0.80;;;0.80;;
14472;SDS011;7322;50.872;4.386;2023-03-08T06:13:41;1.30;;;0.70;;
14472;SDS011;7322;50.872;4.386;2023-03-08T06:16:10;0.60;;;0.60;;
14472;SDS011;7322;50.872;4.386;2023-03-08T06:18:38;0.97;;;0.73;;
14472;SDS011;7322;50.872;4.386;2023-03-08T06:21:09;0.50;;;0.50;;
14472;SDS011;7322;50.872;4.386;2023-03-08T06:23:39;1.50;;;0.70;;
14472;SDS011;7322;50.872;4.386;2023-03-08T06:26:07;0.77;;;0.77;;
14472;SDS011;7322;50.872;4.386;2023-03-08T06:28:36;1.23;;;0.50;;
14472;SDS011;7322;50.872;4.386;2023-03-08T06:31:07;0.70;;;0.70;;
14472;SDS011;7322;50.872;4.386;2023-03-08T06:33:38;0.60;;;0.60;;
14472;SDS011;7322;50.872;4.386;2023-03-08T06:36:13;1.90;;;0.77;;
14472;SDS011;7322;50.872;4.386;2023-03-08T06:38:42;1.10;;;0.77;;
14472;SDS011;7322;50.872;4.386;2023-03-08T06:41:11;1.23;;;0.70;;
14472;SDS011;7322;50.872;4.386;2023-03-08T06:43:40;0.60;;;0.60;;
14472;SDS011;7322;50.872;4.386;2023-03-08T06:46:10;0.70;;;0.70;;
14472;SDS011;7322;50.872;4.386;2023-03-08T06:48:39;1.63;;;0.70;;
14472;SDS011;7322;50.872;4.386;2023-03-08T06:51:12;0.83;;;0.70;;
14472;SDS011;7322;50.872;4.386;2023-03-08T06:53:41;0.93;;;0.73;;
14472;SDS011;7322;50.872;4.386;2023-03-08T06:56:11;2.83;;;0.90;;
14472;SDS011;7322;50.872;4.386;2023-03-08T06:58:40;1.87;;;0.90;;
14472;SDS011;7322;50.872;4.386;2023-03-08T07:01:09;0.80;;;0.67;;
14472;SDS011;7322;50.872;4.386;2023-03-08T07:03:38;1.70;;;0.90;;
14472;SDS011;7322;50.872;4.386;2023-03-08T07:06:07;1.47;;;0.90;;
14472;SDS011;7322;50.872;4.386;2023-03-08T07:08:40;1.10;;;0.90;;
14472;SDS011;7322;50.872;4.386;2023-03-08T07:11:09;1.83;;;0.90;;
14472;SDS011;7322;50.872;4.386;2023-03-08T07:13:38;1.50;;;0.77;;
14472;SDS011;7322;50.872;4.386;2023-03-08T07:16:06;2.13;;;0.80;;
14472;SDS011;7322;50.872;4.386;2023-03-08T07:18:35;0.90;;;0.80;;
14472;SDS011;7322;50.872;4.386;2023-03-08T07:21:02;1.73;;;0.80;;
14472;SDS011;7322;50.872;4.386;2023-03-08T07:23:35;0.80;;;0.70;;
14472;SDS011;7322;50.872;4.386;2023-03-08T07:26:04;1.83;;;0.80;;
14472;SDS011;7322;50.872;4.386;2023-03-08T07:28:33;1.80;;;0.90;;
14472;SDS011;7322;50.872;4.386;2023-03-08T07:31:01;1.00;;;0.90;;
14472;SDS011;7322;50.872;4.386;2023-03-08T07:33:30;1.43;;;0.80;;
14472;SDS011;7322;50.872;4.386;2023-03-08T07:35:59;0.80;;;0.77;;
14472;SDS011;7322;50.872;4.386;2023-03-08T07:38:27;2.43;;;0.97;;
14472;SDS011;7322;50.872;4.386;2023-03-08T07:40:56;1.17;;;0.90;;
14472;SDS011;7322;50.872;4.386;2023-03-08T07:43:23;2.10;;;0.83;;
14472;SDS011;7322;50.872;4.386;2023-03-08T07:45:58;0.70;;;0.70;;
14472;SDS011;7322;50.872;4.386;2023-03-08T07:48:27;0.80;;;0.70;;
14472;SDS011;7322;50.872;4.386;2023-03-08T07:51:00;1.00;;;0.80;;
14472;SDS011;7322;50.872;4.386;2023-03-08T07:53:30;1.30;;;1.00;;
14472;SDS011;7322;50.872;4.386;2023-03-08T07:55:59;2.37;;;0.77;;
14472;SDS011;7322;50.872;4.386;2023-03-08T07:58:27;0.97;;;0.80;;
14472;SDS011;7322;50.872;4.386;2023-03-08T08:00:56;1.10;;;1.00;;
14472;SDS011;7322;50.872;4.386;2023-03-08T08:03:23;2.10;;;0.87;;
14472;SDS011;7322;50.872;4.386;2023-03-08T08:06:00;1.27;;;0.80;;
14472;SDS011;7322;50.872;4.386;2023-03-08T08:08:29;0.73;;;0.70;;
14472;SDS011;7322;50.872;4.386;2023-03-08T08:10:56;1.40;;;0.80;;
14472;SDS011;7322;50.872;4.386;2023-03-08T08:13:29;1.27;;;0.90;;
14472;SDS011;7322;50.872;4.386;2023-03-08T08:15:57;0.70;;;0.70;;
14472;SDS011;7322;50.872;4.386;2023-03-08T08:18:26;1.00;;;0.80;;
14472;SDS011;7322;50.872;4.386;2023-03-08T08:21:01;3.07;;;0.87;;
14472;SDS011;7322;50.872;4.386;2023-03-08T08:23:30;1.30;;;0.80;;
14472;SDS011;7322;50.872;4.386;2023-03-08T08:25:58;1.50;;;0.73;;
14472;SDS011;7322;50.872;4.386;2023-03-08T08:28:28;2.03;;;0.90;;
14472;SDS011;7322;50.872;4.386;2023-03-08T08:30:56;1.90;;;0.90;;
14472;SDS011;7322;50.872;4.386;2023-03-08T08:33:24;1.10;;;0.70;;
14472;SDS011;7322;50.872;4.386;2023-03-08T08:35:52;1.10;;;0.90;;
14472;SDS011;7322;50.872;4.386;2023-03-08T08:38:20;0.90;;;0.80;;
14472;SDS011;7322;50.872;4.386;2023-03-08T08:40:48;1.73;;;0.80;;
14472;SDS011;7322;50.872;4.386;2023-03-08T08:43:24;0.80;;;0.80;;
14472;SDS011;7322;50.872;4.386;2023-03-08T08:45:57;1.47;;;0.90;;
14472;SDS011;7322;50.872;4.386;2023-03-08T08:48:26;1.87;;;0.97;;
14472;SDS011;7322;50.872;4.386;2023-03-08T08:50:56;1.67;;;0.80;;
14472;SDS011;7322;50.872;4.386;2023-03-08T08:53:24;0.90;;;0.77;;
14472;SDS011;7322;50.872;4.386;2023-03-08T08:55:52;1.10;;;0.90;;
14472;SDS011;7322;50.872;4.386;2023-03-08T08:58:21;0.83;;;0.80;;
14472;SDS011;7322;50.872;4.386;2023-03-08T09:00:48;1.53;;;0.70;;
14472;SDS011;7322;50.872;4.386;2023-03-08T09:03:17;1.37;;;0.90;;
14472;SDS011;7322;50.872;4.386;2023-03-08T09:05:45;2.60;;;1.00;;
14472;SDS011;7322;50.872;4.386;2023-03-08T09:08:12;1.43;;;0.70;;
14472;SDS011;7322;50.872;4.386;2023-03-08T09:10:40;0.93;;;0.80;;
14472;SDS011;7322;50.872;4.386;2023-03-08T09:13:18;1.23;;;0.83;;
14472;SDS011;7322;50.872;4.386;2023-03-08T09:15:45;1.23;;;0.80;;
14472;SDS011;7322;50.872;4.386;2023-03-08T09:18:13;2.47;;;0.93;;
14472;SDS011;7322;50.872;4.386;2023-03-08T09:20:43;1.20;;;0.77;;
14472;SDS011;7322;50.872;4.386;2023-03-08T09:23:11;2.50;;;1.00;;
14472;SDS011;7322;50.872;4.386;2023-03-08T09:25:39;1.03;;;0.90;;
14472;SDS011;7322;50.872;4.386;2023-03-08T09:28:09;1.27;;;0.80;;
14472;SDS011;7322;50.872;4.386;2023-03-08T09:30:37;0.83;;;0.60;;
14472;SDS011;7322;50.872;4.386;2023-03-08T09:33:05;0.90;;;0.80;;
14472;SDS011;7322;50.872;4.386;2023-03-08T09:35:32;1.63;;;0.80;;
14472;SDS011;7322;50.872;4.386;2023-03-08T09:38:01;0.97;;;0.80;;
14472;SDS011;7322;50.872;4.386;2023-03-08T09:40:29;1.27;;;0.90;;
14472;SDS011;7322;50.872;4.386;2023-03-08T09:43:05;1.53;;;0.67;;
14472;SDS011;7322;50.872;4.386;2023-03-08T09:45:38;1.10;;;0.90;;
14472;SDS011;7322;50.872;4.386;2023-03-08T09:48:06;1.33;;;1.00;;
14472;SDS011;7322;50.872;4.386;2023-03-08T09:50:40;0.70;;;0.70;;
14472;SDS011;7322;50.872;4.386;2023-03-08T09:53:19;1.03;;;0.63;;
14472;SDS011;7322;50.872;4.386;2023-03-08T09:55:53;1.17;;;0.93;;
14472;SDS011;7322;50.872;4.386;2023-03-08T09:58:27;0.80;;;0.80;;
14472;SDS011;7322;50.872;4.386;2023-03-08T10:01:00;1.37;;;0.90;;
14472;SDS011;7322;50.872;4.386;2023-03-08T10:06:33;1.00;;;0.80;;
14472;SDS011;7322;50.872;4.386;2023-03-08T10:09:10;2.10;;;0.90;;
14472;SDS011;7322;50.872;4.386;2023-03-08T10:11:51;0.83;;;0.67;;
14472;SDS011;7322;50.872;4.386;2023-03-08T10:14:29;0.73;;;0.70;;
14472;SDS011;7322;50.872;4.386;2023-03-08T10:16:59;1.63;;;0.80;;
14472;SDS011;7322;50.872;4.386;2023-03-08T10:19:32;0.50;;;0.50;;
14472;SDS011;7322;50.872;4.386;2023-03-08T10:22:07;0.70;;;0.60;;
14472;SDS011;7322;50.872;4.386;2023-03-08T10:24:49;1.00;;;0.90;;
14472;SDS011;7322;50.872;4.386;2023-03-08T10:27:24;0.83;;;0.70;;
14472;SDS011;7322;50.872;4.386;2023-03-08T10:29:56;0.93;;;0.80;;
14472;SDS011;7322;50.872;4.386;2023-03-08T10:32:25;2.97;;;0.80;;
14472;SDS011;7322;50.872;4.386;2023-03-08T10:34:58;1.07;;;0.70;;
14472;SDS011;7322;50.872;4.386;2023-03-08T10:37:29;2.70;;;0.90;;
14472;SDS011;7322;50.872;4.386;2023-03-08T10:40:04;0.60;;;0.60;;
14472;SDS011;7322;50.872;4.386;2023-03-08T10:42:34;0.83;;;0.80;;
14472;SDS011;7322;50.872;4.386;2023-03-08T10:45:03;0.73;;;0.60;;
14472;SDS011;7322;50.872;4.386;2023-03-08T10:47:39;1.13;;;0.77;;
14472;SDS011;7322;50.872;4.386;2023-03-08T10:50:15;1.03;;;0.70;;
14472;SDS011;7322;50.872;4.386;2023-03-08T10:52:44;1.07;;;0.80;;
14472;SDS011;7322;50.872;4.386;2023-03-08T10:55:15;0.97;;;0.73;;
14472;SDS011;7322;50.872;4.386;2023-03-08T10:57:47;0.93;;;0.80;;
14472;SDS011;7322;50.872;4.386;2023-03-08T11:00:23;1.67;;;0.90;;
14472;SDS011;7322;50.872;4.386;2023-03-08T11:03:09;0.97;;;0.77;;
14472;SDS011;7322;50.872;4.386;2023-03-08T11:05:49;1.27;;;0.80;;
14472;SDS011;7322;50.872;4.386;2023-03-08T11:08:21;1.13;;;0.80;;
14472;SDS011;7322;50.872;4.386;2023-03-08T11:11:08;1.57;;;0.80;;
14472;SDS011;7322;50.872;4.386;2023-03-08T11:13:38;2.63;;;0.90;;
14472;SDS011;7322;50.872;4.386;2023-03-08T11:16:18;2.30;;;0.90;;
14472;SDS011;7322;50.872;4.386;2023-03-08T11:19:11;1.00;;;0.90;;
14472;SDS011;7322;50.872;4.386;2023-03-08T11:24:28;1.43;;;0.90;;
14472;SDS011;7322;50.872;4.386;2023-03-08T11:27:19;1.97;;;1.10;;
14472;SDS011;7322;50.872;4.386;2023-03-08T11:30:00;2.30;;;1.37;;
14472;SDS011;7322;50.872;4.386;2023-03-08T11:32:42;5.70;;;1.03;;
14472;SDS011;7322;50.872;4.386;2023-03-08T11:35:20;2.90;;;0.93;;
14472;SDS011;7322;50.872;4.386;2023-03-08T11:38:01;2.37;;;1.13;;
14472;SDS011;7322;50.872;4.386;2023-03-08T11:40:36;1.93;;;1.30;;
14472;SDS011;7322;50.872;4.386;2023-03-08T11:43:20;2.53;;;1.30;;
14472;SDS011;7322;50.872;4.386;2023-03-08T11:46:00;3.27;;;1.33;;
14472;SDS011;7322;50.872;4.386;2023-03-08T11:48:44;1.87;;;1.27;;
14472;SDS011;7322;50.872;4.386;2023-03-08T11:51:42;3.03;;;1.30;;
14472;SDS011;7322;50.872;4.386;2023-03-08T11:54:17;1.97;;;1.10;;
14472;SDS011;7322;50.872;4.386;2023-03-08T11:56:54;3.60;;;1.20;;
14472;SDS011;7322;50.872;4.386;2023-03-08T11:59:28;2.57;;;1.10;;
14472;SDS011;7322;50.872;4.386;2023-03-08T12:02:01;4.00;;;1.30;;
14472;SDS011;7322;50.872;4.386;2023-03-08T12:04:39;2.93;;;1.00;;
14472;SDS011;7322;50.872;4.386;2023-03-08T12:07:14;3.67;;;1.23;;
14472;SDS011;7322;50.872;4.386;2023-03-08T12:09:51;4.10;;;1.30;;
14472;SDS011;7322;50.872;4.386;2023-03-08T12:12:23;3.90;;;1.30;;
14472;SDS011;7322;50.872;4.386;2023-03-08T12:14:55;3.97;;;1.20;;
14472;SDS011;7322;50.872;4.386;2023-03-08T12:17:26;3.63;;;1.30;;
14472;SDS011;7322;50.872;4.386;2023-03-08T12:19:57;3.57;;;1.40;;
14472;SDS011;7322;50.872;4.386;2023-03-08T12:22:34;3.00;;;1.40;;
14472;SDS011;7322;50.872;4.386;2023-03-08T12:25:15;5.43;;;1.23;;
14472;SDS011;7322;50.872;4.386;2023-03-08T12:27:53;3.00;;;1.67;;
14472;SDS011;7322;50.872;4.386;2023-03-08T12:30:36;5.70;;;1.30;;
14472;SDS011;7322;50.872;4.386;2023-03-08T12:33:14;2.93;;;1.27;;
14472;SDS011;7322;50.872;4.386;2023-03-08T12:35:50;2.50;;;1.07;;
14472;SDS011;7322;50.872;4.386;2023-03-08T12:38:29;2.77;;;1.40;;
14472;SDS011;7322;50.872;4.386;2023-03-08T12:41:00;4.13;;;1.20;;
14472;SDS011;7322;50.872;4.386;2023-03-08T12:43:29;5.17;;;1.20;;
14472;SDS011;7322;50.872;4.386;2023-03-08T12:46:04;4.77;;;1.40;;
14472;SDS011;7322;50.872;4.386;2023-03-08T12:48:36;6.23;;;1.60;;
14472;SDS011;7322;50.872;4.386;2023-03-08T12:51:18;5.47;;;1.60;;
14472;SDS011;7322;50.872;4.386;2023-03-08T12:53:55;5.33;;;1.53;;
14472;SDS011;7322;50.872;4.386;2023-03-08T12:56:27;4.53;;;1.40;;
14472;SDS011;7322;50.872;4.386;2023-03-08T12:58:58;6.53;;;1.40;;
14472;SDS011;7322;50.872;4.386;2023-03-08T13:01:35;5.07;;;1.50;;
14472;SDS011;7322;50.872;4.386;2023-03-08T13:04:05;3.13;;;1.37;;
14472;SDS011;7322;50.872;4.386;2023-03-08T13:07:08;3.87;;;1.30;;
14472;SDS011;7322;50.872;4.386;2023-03-08T13:09:43;4.10;;;1.63;;
14472;SDS011;7322;50.872;4.386;2023-03-08T13:12:22;5.03;;;1.50;;
14472;SDS011;7322;50.872;4.386;2023-03-08T13:15:01;2.20;;;1.20;;
14472;SDS011;7322;50.872;4.386;2023-03-08T13:24:02;2.27;;;1.37;;
14472;SDS011;7322;50.872;4.386;2023-03-08T13:26:43;3.20;;;1.40;;
14472;SDS011;7322;50.872;4.386;2023-03-08T13:34:46;3.60;;;1.10;;
14472;SDS011;7322;50.872;4.386;2023-03-08T13:37:25;1.40;;;1.20;;
14472;SDS011;7322;50.872;4.386;2023-03-08T13:51:04;3.30;;;1.10;;
14472;SDS011;7322;50.872;4.386;2023-03-08T14:02:25;2.17;;;1.00;;
14472;SDS011;7322;50.872;4.386;2023-03-08T14:04:55;2.27;;;0.90;;
14472;SDS011;7322;50.872;4.386;2023-03-08T14:07:27;1.20;;;0.93;;
14472;SDS011;7322;50.872;4.386;2023-03-08T14:12:55;2.10;;;1.20;;
14472;SDS011;7322;50.872;4.386;2023-03-08T14:15:25;2.03;;;0.90;;
14472;SDS011;7322;50.872;4.386;2023-03-08T14:21:12;3.80;;;1.10;;
14472;SDS011;7322;50.872;4.386;2023-03-08T14:23:44;2.00;;;1.00;;
14472;SDS011;7322;50.872;4.386;2023-03-08T14:31:54;1.20;;;0.90;;
14472;SDS011;7322;50.872;4.386;2023-03-08T14:34:36;1.93;;;0.90;;
14472;SDS011;7322;50.872;4.386;2023-03-08T14:40:30;1.23;;;0.93;;
14472;SDS011;7322;50.872;4.386;2023-03-08T14:46:24;1.27;;;0.80;;
14472;SDS011;7322;50.872;4.386;2023-03-08T14:48:58;1.33;;;0.90;;
14472;SDS011;7322;50.872;4.386;2023-03-08T14:51:28;2.83;;;1.10;;
14472;SDS011;7322;50.872;4.386;2023-03-08T14:57:12;0.77;;;0.73;;
14472;SDS011;7322;50.872;4.386;2023-03-08T14:59:44;1.63;;;0.90;;
14472;SDS011;7322;50.872;4.386;2023-03-08T15:05:15;1.20;;;0.80;;
14472;SDS011;7322;50.872;4.386;2023-03-08T15:07:50;1.13;;;1.00;;
14472;SDS011;7322;50.872;4.386;2023-03-08T15:10:26;1.03;;;0.93;;
14472;SDS011;7322;50.872;4.386;2023-03-08T15:12:56;1.17;;;1.00;;
14472;SDS011;7322;50.872;4.386;2023-03-08T15:15:35;1.00;;;0.90;;
14472;SDS011;7322;50.872;4.386;2023-03-08T15:18:08;1.70;;;1.03;;
14472;SDS011;7322;50.872;4.386;2023-03-08T15:23:53;1.30;;;1.10;;
14472;SDS011;7322;50.872;4.386;2023-03-08T15:26:26;1.53;;;0.90;;
14472;SDS011;7322;50.872;4.386;2023-03-08T15:29:11;1.37;;;0.90;;
14472;SDS011;7322;50.872;4.386;2023-03-08T15:31:55;1.33;;;1.00;;
14472;SDS011;7322;50.872;4.386;2023-03-08T15:34:25;1.10;;;0.90;;
14472;SDS011;7322;50.872;4.386;2023-03-08T15:36:53;1.43;;;0.80;;
14472;SDS011;7322;50.872;4.386;2023-03-08T15:39:22;2.30;;;1.00;;
14472;SDS011;7322;50.872;4.386;2023-03-08T15:41:49;0.87;;;0.87;;
14472;SDS011;7322;50.872;4.386;2023-03-08T15:44:18;1.10;;;0.97;;
14472;SDS011;7322;50.872;4.386;2023-03-08T15:46:45;0.93;;;0.90;;
14472;SDS011;7322;50.872;4.386;2023-03-08T15:49:13;1.30;;;1.03;;
14472;SDS011;7322;50.872;4.386;2023-03-08T15:51:40;1.27;;;0.97;;
14472;SDS011;7322;50.872;4.386;2023-03-08T15:54:09;0.90;;;0.80;;
14472;SDS011;7322;50.872;4.386;2023-03-08T15:56:37;1.83;;;1.20;;
14472;SDS011;7322;50.872;4.386;2023-03-08T15:59:04;1.00;;;0.97;;
14472;SDS011;7322;50.872;4.386;2023-03-08T16:01:33;0.87;;;0.80;;
14472;SDS011;7322;50.872;4.386;2023-03-08T16:04:01;0.80;;;0.80;;
14472;SDS011;7322;50.872;4.386;2023-03-08T16:06:28;0.90;;;0.90;;
14472;SDS011;7322;50.872;4.386;2023-03-08T16:08:58;1.00;;;1.00;;
14472;SDS011;7322;50.872;4.386;2023-03-08T16:11:25;1.60;;;1.03;;
14472;SDS011;7322;50.872;4.386;2023-03-08T16:13:52;1.47;;;1.00;;
14472;SDS011;7322;50.872;4.386;2023-03-08T16:16:19;0.93;;;0.90;;
14472;SDS011;7322;50.872;4.386;2023-03-08T16:18:48;1.00;;;0.80;;
14472;SDS011;7322;50.872;4.386;2023-03-08T16:21:17;0.80;;;0.80;;
14472;SDS011;7322;50.872;4.386;2023-03-08T16:23:46;1.20;;;0.90;;
14472;SDS011;7322;50.872;4.386;2023-03-08T16:26:14;1.10;;;1.00;;
14472;SDS011;7322;50.872;4.386;2023-03-08T16:28:41;1.10;;;1.00;;
14472;SDS011;7322;50.872;4.386;2023-03-08T16:31:09;0.80;;;0.80;;